Time;durP1;ratioP1;P1;durP2;ratioP2;P2;SDS_P1;SDS_P2;PMS_P1;PMS_P2;Temp;Humidity;BMP_temperature;BMP_pressure;BME280_temperature;BME280_humidity;BME280_pressure;Samples;Min_cycle;Max_cycle;Signal;HPM_P1;HPM_P2
2023/09/18 00:02:25;;;;;;;19.15;12.52;;;19.80;99.90;;;;;;5068301;28;20019;-48
2023/09/18 00:04:51;;;;;;;20.67;12.07;;;19.80;99.90;;;;;;5068942;28;20029;-49
2023/09/18 00:07:16;;;;;;;23.33;12.65;;;19.80;99.90;;;;;;5068389;28;20023;-49
2023/09/18 00:09:42;;;;;;;18.17;11.35;;;19.90;99.90;;;;;;5068922;28;20112;-50
2023/09/18 00:12:09;;;;;;;25.25;13.75;;;19.90;99.90;;;;;;5067283;28;20107;-47
2023/09/18 00:14:35;;;;;;;18.50;10.18;;;19.90;99.90;;;;;;5071903;28;20477;-52
2023/09/18 00:17:01;;;;;;;15.10;11.55;;;19.90;99.90;;;;;;5067711;28;20107;-48
2023/09/18 00:19:27;;;;;;;14.30;10.63;;;20.00;99.90;;;;;;5072889;28;20557;-49
2023/09/18 00:21:54;;;;;;;19.08;10.38;;;20.00;99.90;;;;;;5072780;28;20020;-43
2023/09/18 00:24:20;;;;;;;15.95;10.70;;;20.00;99.90;;;;;;5071764;28;20016;-47
2023/09/18 00:26:47;;;;;;;16.40;10.18;;;20.00;99.90;;;;;;5072837;28;20418;-50
2023/09/18 00:29:13;;;;;;;15.98;11.15;;;20.00;99.90;;;;;;5072890;28;20103;-50
2023/09/18 00:31:39;;;;;;;15.77;10.52;;;20.10;99.90;;;;;;5070298;28;20128;-49
2023/09/18 00:34:05;;;;;;;16.35;10.90;;;20.10;99.90;;;;;;5071557;28;20539;-47
2023/09/18 00:36:30;;;;;;;12.88;9.50;;;20.10;99.90;;;;;;5072432;28;20074;-48
2023/09/18 00:38:56;;;;;;;13.88;9.55;;;20.10;99.90;;;;;;5071398;28;20024;-50
2023/09/18 00:41:22;;;;;;;20.38;9.65;;;20.10;99.90;;;;;;5071067;28;20382;-46
2023/09/18 00:43:47;;;;;;;17.15;9.80;;;20.20;99.90;;;;;;5071769;28;20021;-47
2023/09/18 00:46:13;;;;;;;17.65;10.30;;;20.20;99.90;;;;;;5072591;28;20041;-47
2023/09/18 00:48:39;;;;;;;17.02;10.27;;;20.30;99.90;;;;;;5069937;28;20024;-48
2023/09/18 00:51:05;;;;;;;18.00;8.93;;;20.30;99.90;;;;;;5072683;28;20086;-48
2023/09/18 00:53:31;;;;;;;17.83;9.18;;;20.30;99.90;;;;;;5072678;28;20082;-47
2023/09/18 00:56:00;;;;;;;14.07;9.40;;;20.30;99.90;;;;;;5072747;28;20025;-50
2023/09/18 00:58:27;;;;;;;10.45;8.55;;;20.30;99.90;;;;;;5072000;28;20164;-48
2023/09/18 01:00:52;;;;;;;16.02;9.32;;;20.30;99.90;;;;;;5069830;28;20021;-50
2023/09/18 01:03:21;;;;;;;12.00;8.98;;;20.30;99.90;;;;;;5071200;28;20103;-43
2023/09/18 01:05:46;;;;;;;15.02;8.95;;;20.30;99.90;;;;;;5070904;28;20025;-50
2023/09/18 01:08:12;;;;;;;12.45;8.48;;;20.30;99.90;;;;;;5072296;28;20054;-51
2023/09/18 01:10:57;;;;;;;14.20;8.52;;;20.30;99.90;;;;;;5072566;28;20116;-46
2023/09/18 01:13:30;;;;;;;15.18;9.70;;;20.30;99.90;;;;;;5072232;28;20029;-46
2023/09/18 01:16:06;;;;;;;14.13;8.30;;;20.20;99.90;;;;;;5070037;28;20028;-53
2023/09/18 01:18:32;;;;;;;14.52;8.90;;;20.20;99.90;;;;;;5058430;28;20034;-43
2023/09/18 01:20:58;;;;;;;14.73;9.55;;;20.20;99.90;;;;;;5066881;28;20468;-43
2023/09/18 01:23:23;;;;;;;15.27;8.57;;;20.20;99.90;;;;;;5067745;28;20020;-45
2023/09/18 01:25:49;;;;;;;14.52;8.18;;;20.20;99.90;;;;;;5070255;28;20428;-46
2023/09/18 01:28:16;;;;;;;17.20;8.63;;;20.30;99.90;;;;;;5059053;28;20064;-47
2023/09/18 01:30:42;;;;;;;10.65;7.35;;;20.30;99.90;;;;;;5071211;28;20039;-41
2023/09/18 01:33:09;;;;;;;11.70;8.23;;;20.40;99.90;;;;;;5060754;28;20036;-46
2023/09/18 01:35:35;;;;;;;14.43;8.17;;;20.40;99.90;;;;;;5072327;28;20393;-43
2023/09/18 01:38:02;;;;;;;13.00;8.13;;;20.40;99.90;;;;;;5067343;28;20025;-47
2023/09/18 01:40:29;;;;;;;9.80;7.43;;;20.40;99.90;;;;;;5072132;28;20035;-43
2023/09/18 01:42:55;;;;;;;10.50;5.93;;;20.40;99.90;;;;;;5072644;28;20524;-46
2023/09/18 01:45:21;;;;;;;11.13;8.50;;;20.30;99.90;;;;;;5071104;28;20181;-50
2023/09/18 01:47:46;;;;;;;14.38;8.27;;;20.30;99.90;;;;;;5072887;28;20393;-45
2023/09/18 01:50:13;;;;;;;13.48;8.00;;;20.30;99.90;;;;;;5074804;28;20024;-50
2023/09/18 01:52:38;;;;;;;14.68;8.07;;;20.30;99.90;;;;;;5075442;28;20469;-34
2023/09/18 01:55:04;;;;;;;11.85;7.80;;;20.30;99.90;;;;;;5072212;28;20024;-35
2023/09/18 01:57:30;;;;;;;11.13;8.48;;;20.30;99.90;;;;;;5075670;28;20025;-34
2023/09/18 01:59:56;;;;;;;13.10;8.27;;;20.40;99.90;;;;;;5075452;28;20123;-34
2023/09/18 02:02:21;;;;;;;15.43;8.68;;;20.40;99.90;;;;;;5073699;28;20111;-35
2023/09/18 02:04:47;;;;;;;18.25;9.13;;;20.30;99.90;;;;;;5074951;28;20494;-35
2023/09/18 02:07:13;;;;;;;18.10;9.00;;;20.30;99.90;;;;;;5069782;28;20016;-37
2023/09/18 02:09:39;;;;;;;20.48;9.57;;;20.30;99.90;;;;;;5075589;28;20056;-35
2023/09/18 02:12:05;;;;;;;19.33;10.05;;;20.30;99.90;;;;;;5070539;28;20445;-34
2023/09/18 02:14:31;;;;;;;15.18;10.13;;;20.30;99.90;;;;;;5075167;28;20466;-34
2023/09/18 02:16:57;;;;;;;19.27;9.25;;;20.30;99.90;;;;;;5073595;28;20028;-35
2023/09/18 02:19:23;;;;;;;16.70;10.20;;;20.30;99.90;;;;;;5072614;28;20032;-34
2023/09/18 02:21:48;;;;;;;18.45;10.23;;;20.40;99.90;;;;;;5073012;28;20023;-37
2023/09/18 02:24:14;;;;;;;17.50;10.20;;;20.30;99.90;;;;;;5073131;28;20074;-34
2023/09/18 02:26:40;;;;;;;17.77;10.60;;;20.30;99.90;;;;;;5074313;28;20074;-34
2023/09/18 02:29:11;;;;;;;17.67;10.63;;;20.30;99.90;;;;;;5070948;28;20028;-35
2023/09/18 02:31:37;;;;;;;19.05;11.35;;;20.20;99.90;;;;;;5072106;28;20533;-34
2023/09/18 02:34:03;;;;;;;16.67;10.90;;;20.30;99.90;;;;;;5072957;28;20028;-35
2023/09/18 02:36:28;;;;;;;17.95;11.63;;;20.20;99.90;;;;;;5073237;28;20469;-34
2023/09/18 02:38:54;;;;;;;15.75;10.98;;;20.30;99.90;;;;;;5070934;28;20025;-34
2023/09/18 02:41:19;;;;;;;18.40;11.30;;;20.20;99.90;;;;;;5071501;28;20096;-35
2023/09/18 02:43:45;;;;;;;19.52;11.32;;;20.10;99.90;;;;;;5074130;28;20031;-40
2023/09/18 02:46:11;;;;;;;21.50;10.93;;;20.10;99.90;;;;;;5069789;28;20025;-34
2023/09/18 02:48:36;;;;;;;20.77;11.25;;;20.00;99.90;;;;;;5073064;28;20036;-34
2023/09/18 02:51:02;;;;;;;15.98;9.75;;;20.10;99.90;;;;;;5072820;28;20048;-34
2023/09/18 02:53:28;;;;;;;22.23;10.98;;;20.10;99.90;;;;;;5073907;28;20473;-34
2023/09/18 02:55:56;;;;;;;15.70;9.98;;;20.10;99.90;;;;;;5070190;28;20082;-34
2023/09/18 02:58:22;;;;;;;19.23;10.95;;;20.10;99.90;;;;;;5073430;28;20029;-34
2023/09/18 03:00:50;;;;;;;23.37;11.00;;;20.10;99.90;;;;;;5072756;28;20044;-34
2023/09/18 03:03:16;;;;;;;20.95;10.55;;;20.20;99.90;;;;;;5070837;28;20275;-35
2023/09/18 03:05:43;;;;;;;18.40;10.93;;;20.20;99.90;;;;;;5073681;28;20465;-34
2023/09/18 03:08:10;;;;;;;15.27;9.68;;;20.20;99.90;;;;;;5072604;28;20362;-34
2023/09/18 03:10:41;;;;;;;16.83;10.60;;;20.10;99.90;;;;;;5071475;28;20032;-34
2023/09/18 03:13:08;;;;;;;17.02;10.32;;;20.10;99.90;;;;;;5073496;28;20103;-34
2023/09/18 03:15:34;;;;;;;21.02;10.70;;;20.10;99.90;;;;;;5068499;28;20416;-50
2023/09/18 03:18:00;;;;;;;15.30;10.07;;;20.10;99.90;;;;;;5069538;28;20054;-35
2023/09/18 03:20:28;;;;;;;16.90;10.32;;;20.10;99.90;;;;;;5073887;28;20392;-35
2023/09/18 03:22:56;;;;;;;16.50;10.38;;;20.00;99.90;;;;;;5072975;28;20028;-34
2023/09/18 03:25:23;;;;;;;16.55;10.45;;;20.00;99.90;;;;;;5073895;28;20025;-49
2023/09/18 03:27:50;;;;;;;15.83;11.00;;;20.10;99.90;;;;;;5073887;28;20446;-52
2023/09/18 03:30:16;;;;;;;;;;;20.10;99.90;;;;;;5074202;28;20036;-50
2023/09/18 03:32:42;;;;;;;15.65;9.45;;;20.10;99.90;;;;;;5072034;28;20440;-50
2023/09/18 03:35:17;;;;;;;20.08;9.85;;;20.10;99.90;;;;;;5073876;28;20020;-47
2023/09/18 03:37:51;;;;;;;15.43;10.23;;;20.10;99.90;;;;;;5072189;28;20071;-48
2023/09/18 03:40:18;;;;;;;18.10;10.75;;;20.00;99.90;;;;;;5073626;28;20120;-48
2023/09/18 03:42:44;;;;;;;19.33;10.10;;;20.10;99.90;;;;;;5072107;28;20523;-48
2023/09/18 03:45:10;;;;;;;18.10;9.98;;;20.00;99.90;;;;;;5073292;28;20430;-48
2023/09/18 03:47:37;;;;;;;15.30;9.45;;;20.10;99.90;;;;;;5067659;28;20021;-50
2023/09/18 03:50:03;;;;;;;14.53;9.70;;;20.10;99.90;;;;;;5070584;28;20040;-47
2023/09/18 03:52:29;;;;;;;15.40;9.65;;;20.10;99.90;;;;;;5071368;28;20027;-47
2023/09/18 03:54:55;;;;;;;16.00;9.40;;;20.10;99.90;;;;;;5073484;28;20021;-50
2023/09/18 03:57:20;;;;;;;15.32;8.98;;;20.10;99.90;;;;;;5072698;28;20036;-49
2023/09/18 03:59:46;;;;;;;13.88;8.68;;;20.20;99.90;;;;;;5071236;28;20542;-47
2023/09/18 04:02:12;;;;;;;13.10;7.75;;;20.10;99.90;;;;;;5067901;28;20074;-48
2023/09/18 04:04:37;;;;;;;11.57;7.10;;;20.20;99.90;;;;;;5053129;28;20478;-49
2023/09/18 04:07:07;;;;;;;18.20;9.05;;;20.10;99.90;;;;;;5053495;28;20029;-45
2023/09/18 04:09:34;;;;;;;12.77;8.38;;;20.20;99.90;;;;;;5053120;28;20481;-48
2023/09/18 04:12:00;;;;;;;;;;;20.20;99.90;;;;;;5061674;28;20040;-46
2023/09/18 04:14:26;;;;;;;8.27;4.28;;;20.10;99.90;;;;;;5073010;28;20008;-49
2023/09/18 04:16:51;;;;;;;7.95;4.20;;;20.10;99.90;;;;;;5072029;28;20472;-48
2023/09/18 04:19:17;;;;;;;6.30;2.80;;;20.00;99.90;;;;;;5069121;28;20070;-48
2023/09/18 04:21:43;;;;;;;5.15;2.35;;;20.00;99.90;;;;;;5071221;28;20025;-49
2023/09/18 04:24:09;;;;;;;2.40;1.58;;;20.00;99.90;;;;;;5070593;28;20013;-47
2023/09/18 04:26:34;;;;;;;3.67;1.02;;;19.90;99.90;;;;;;5072927;28;20025;-50
2023/09/18 04:29:00;;;;;;;2.90;1.30;;;19.90;99.90;;;;;;5065190;28;20485;-47
2023/09/18 04:31:27;;;;;;;2.35;1.50;;;19.80;99.90;;;;;;5068212;28;20327;-41
2023/09/18 04:33:53;;;;;;;7.00;2.03;;;19.60;99.90;;;;;;5068586;28;20043;-43
2023/09/18 04:36:19;;;;;;;6.00;3.38;;;19.50;99.90;;;;;;5067174;28;20385;-47
2023/09/18 04:38:44;;;;;;;8.32;3.55;;;19.30;99.90;;;;;;5064479;28;20025;-47
2023/09/18 04:41:11;;;;;;;5.80;4.32;;;19.20;99.90;;;;;;5064975;28;20021;-44
2023/09/18 04:43:38;;;;;;;7.13;4.70;;;19.20;99.90;;;;;;5056524;28;20020;-41
2023/09/18 04:46:04;;;;;;;9.65;5.90;;;19.10;99.90;;;;;;5066206;28;20036;-43
2023/09/18 04:48:31;;;;;;;7.47;5.63;;;19.20;99.90;;;;;;5064086;28;20017;-44
2023/09/18 04:50:58;;;;;;;9.98;5.53;;;19.20;99.90;;;;;;5072010;28;20029;-44
2023/09/18 04:53:24;;;;;;;8.43;6.00;;;19.20;99.90;;;;;;5071487;28;20456;-45
2023/09/18 04:55:50;;;;;;;9.60;5.38;;;19.20;99.90;;;;;;5067755;28;20358;-48
2023/09/18 04:58:16;;;;;;;10.32;5.65;;;19.20;99.90;;;;;;5073150;28;20033;-44
2023/09/18 05:00:43;;;;;;;11.27;5.43;;;19.30;99.90;;;;;;5072611;28;20020;-44
2023/09/18 05:03:09;;;;;;;11.13;6.68;;;19.30;99.90;;;;;;5070321;28;20279;-45
2023/09/18 05:05:35;;;;;;;9.97;5.90;;;19.30;99.90;;;;;;5071093;28;20481;-32
2023/09/18 05:08:07;;;;;;;11.98;6.60;;;19.30;99.90;;;;;;5072439;28;20496;-34
2023/09/18 05:10:33;;;;;;;9.35;6.65;;;19.30;99.90;;;;;;5072786;28;20021;-34
2023/09/18 05:12:59;;;;;;;10.90;6.88;;;19.40;99.90;;;;;;5083484;28;20044;-33
2023/09/18 05:15:26;;;;;;;8.65;6.53;;;19.40;99.90;;;;;;5072467;28;20027;-35
2023/09/18 05:17:56;;;;;;;10.17;6.40;;;19.40;99.90;;;;;;5070168;28;20020;-33
2023/09/18 05:20:24;;;;;;;11.30;6.22;;;19.50;99.90;;;;;;5067629;28;20780;-33
2023/09/18 05:22:54;;;;;;;8.63;6.25;;;19.50;99.90;;;;;;5072986;28;20028;-33
2023/09/18 05:25:27;;;;;;;10.63;6.20;;;19.50;99.90;;;;;;5076419;28;20350;-33
2023/09/18 05:27:56;;;;;;;12.80;7.00;;;19.50;99.90;;;;;;5076009;28;20032;-43
2023/09/18 05:30:29;;;;;;;11.45;6.65;;;19.50;99.90;;;;;;5075672;28;20066;-34
2023/09/18 05:33:04;;;;;;;14.15;7.03;;;19.50;99.90;;;;;;5074272;28;20024;-34
2023/09/18 05:35:33;;;;;;;12.65;7.07;;;19.60;99.90;;;;;;5070471;28;20028;-34
2023/09/18 05:37:59;;;;;;;8.07;5.75;;;19.60;99.90;;;;;;5068185;28;20032;-34
2023/09/18 05:40:28;;;;;;;9.57;6.85;;;19.50;99.90;;;;;;5076188;28;20503;-35
2023/09/18 05:42:54;;;;;;;14.82;7.18;;;19.60;99.90;;;;;;5073244;28;21194;-34
2023/09/18 05:45:20;;;;;;;9.15;6.22;;;19.60;99.90;;;;;;5074001;28;20327;-34
2023/09/18 05:47:47;;;;;;;13.63;7.10;;;19.60;99.90;;;;;;5076071;28;20070;-33
2023/09/18 05:50:16;;;;;;;10.75;6.95;;;19.60;99.90;;;;;;5074222;28;20020;-34
2023/09/18 05:52:43;;;;;;;10.43;6.68;;;19.60;99.90;;;;;;5074593;28;20020;-35
2023/09/18 05:55:10;;;;;;;8.13;5.78;;;19.60;99.90;;;;;;5075276;28;20016;-35
2023/09/18 05:57:36;;;;;;;14.05;7.07;;;19.70;99.90;;;;;;5069998;28;20082;-35
2023/09/18 06:00:02;;;;;;;12.57;6.40;;;19.70;99.90;;;;;;5072386;28;20035;-34
2023/09/18 06:02:28;;;;;;;10.88;6.55;;;19.70;99.90;;;;;;5074780;28;20024;-36
2023/09/18 06:04:57;;;;;;;8.50;6.40;;;19.70;99.90;;;;;;5071076;28;20032;-34
2023/09/18 06:07:24;;;;;;;9.98;6.25;;;19.70;99.90;;;;;;5073255;28;20027;-35
2023/09/18 06:09:50;;;;;;;11.68;5.93;;;19.70;99.90;;;;;;5073900;28;20024;-34
2023/09/18 06:12:15;;;;;;;8.82;5.93;;;19.70;99.90;;;;;;5072950;28;20554;-34
2023/09/18 06:14:42;;;;;;;8.32;6.05;;;19.80;99.90;;;;;;5072612;28;20077;-34
2023/09/18 06:17:09;;;;;;;10.75;6.07;;;19.80;99.90;;;;;;5070841;28;20050;-34
2023/09/18 06:19:35;;;;;;;12.13;6.22;;;19.80;99.90;;;;;;5070305;28;20036;-34
2023/09/18 06:22:01;;;;;;;7.95;5.20;;;19.80;99.90;;;;;;5072167;28;20029;-34
2023/09/18 06:24:26;;;;;;;7.47;4.85;;;19.80;99.90;;;;;;5072304;28;20039;-35
2023/09/18 06:26:53;;;;;;;10.50;4.97;;;19.80;99.90;;;;;;5072968;28;20539;-34
2023/09/18 06:29:18;;;;;;;6.78;5.03;;;19.80;99.90;;;;;;5072956;28;20388;-34
2023/09/18 06:31:44;;;;;;;8.02;4.20;;;19.80;99.90;;;;;;5074254;28;20016;-34
2023/09/18 06:34:10;;;;;;;12.27;4.63;;;19.80;99.90;;;;;;5073567;28;20543;-34
2023/09/18 06:36:35;;;;;;;6.45;4.68;;;19.80;99.90;;;;;;5064851;28;20028;-36
2023/09/18 06:39:02;;;;;;;5.22;4.45;;;19.80;99.90;;;;;;5072533;28;20111;-34
2023/09/18 06:41:27;;;;;;;5.40;3.88;;;19.80;99.90;;;;;;5066768;28;20022;-36
2023/09/18 06:43:53;;;;;;;7.40;3.95;;;19.80;99.90;;;;;;5062398;28;20029;-35
2023/09/18 06:46:19;;;;;;;5.32;4.00;;;19.80;99.90;;;;;;5063749;28;20520;-34
2023/09/18 06:48:49;;;;;;;6.05;4.25;;;19.80;99.90;;;;;;5054624;28;20025;-34
2023/09/18 06:51:15;;;;;;;5.75;3.85;;;19.80;99.90;;;;;;5053256;28;20029;-33
2023/09/18 06:53:41;;;;;;;10.27;4.38;;;19.80;99.90;;;;;;5066280;28;20474;-33
2023/09/18 07:33:42;;;;;;;7.80;5.13;;;19.90;99.90;;;;;;5062515;28;20503;-50
2023/09/18 07:36:09;;;;;;;8.82;4.25;;;19.90;99.90;;;;;;5057824;28;20025;-46
2023/09/18 07:38:36;;;;;;;6.38;4.45;;;19.90;99.90;;;;;;5066977;28;20378;-46
2023/09/18 07:41:03;;;;;;;;;;;20.00;99.90;;;;;;5067294;28;20047;-48
2023/09/18 07:43:28;;;;;;;4.05;3.53;;;20.00;99.90;;;;;;5053403;28;20373;-49
2023/09/18 07:45:54;;;;;;;4.90;4.40;;;20.00;99.90;;;;;;5055779;28;20040;-48
2023/09/18 07:48:22;;;;;;;4.32;3.90;;;20.00;99.90;;;;;;5068446;28;20031;-51
2023/09/18 07:50:49;;;;;;;6.43;4.82;;;20.00;99.90;;;;;;5068424;28;20025;-48
2023/09/18 07:53:16;;;;;;;6.40;4.13;;;20.00;99.90;;;;;;5061012;28;20044;-51
2023/09/18 07:55:41;;;;;;;6.05;4.28;;;20.00;99.90;;;;;;5072528;28;20060;-48
2023/09/18 07:58:07;;;;;;;10.32;4.65;;;20.00;99.90;;;;;;5059846;28;20062;-46
2023/09/18 08:00:33;;;;;;;5.68;3.88;;;20.00;99.90;;;;;;5062825;28;20466;-49
2023/09/18 08:03:00;;;;;;;6.68;4.22;;;20.00;99.90;;;;;;5058471;28;20022;-49
2023/09/18 08:05:28;;;;;;;;;;;20.00;99.90;;;;;;5064808;28;20021;-47
2023/09/18 08:07:55;;;;;;;;;;;20.00;99.90;;;;;;5061215;28;19916;-50
2023/09/18 08:10:21;;;;;;;5.35;4.13;;;20.00;99.90;;;;;;5071764;28;19908;-46
2023/09/18 08:12:48;;;;;;;8.07;4.57;;;20.00;99.90;;;;;;5064388;28;20108;-48
2023/09/18 08:15:14;;;;;;;7.80;4.57;;;20.10;99.90;;;;;;5065769;28;20051;-47
2023/09/18 08:17:40;;;;;;;11.10;4.55;;;20.10;99.90;;;;;;5059054;28;20055;-48
2023/09/18 08:20:12;;;;;;;5.28;4.35;;;20.10;99.90;;;;;;5057274;28;20107;-52
2023/09/18 08:22:38;;;;;;;7.68;3.97;;;20.10;99.90;;;;;;5073708;28;20416;-46
2023/09/18 08:25:05;;;;;;;5.95;4.45;;;20.00;99.90;;;;;;5072308;28;20020;-48
2023/09/18 08:27:31;;;;;;;8.30;4.18;;;20.10;99.90;;;;;;5072007;28;20023;-48
2023/09/18 08:29:56;;;;;;;6.82;4.47;;;20.10;99.90;;;;;;5071653;28;20020;-45
2023/09/18 08:32:22;;;;;;;6.38;3.83;;;20.10;99.90;;;;;;5072790;28;20030;-45
2023/09/18 08:34:48;;;;;;;6.05;3.85;;;20.20;99.90;;;;;;5073167;28;20447;-46
2023/09/18 08:37:13;;;;;;;4.95;3.83;;;20.30;99.90;;;;;;5071506;28;20031;-45
2023/09/18 08:39:39;;;;;;;4.93;3.72;;;20.40;99.90;;;;;;5071451;28;20028;-50
2023/09/18 08:42:07;;;;;;;5.03;3.67;;;20.50;99.90;;;;;;5071482;28;20024;-54
2023/09/18 08:44:34;;;;;;;5.72;3.65;;;20.70;99.90;;;;;;5069950;28;20024;-46
2023/09/18 08:47:02;;;;;;;4.60;3.58;;;20.70;99.90;;;;;;5072618;28;20044;-44
2023/09/18 08:49:29;;;;;;;5.15;3.20;;;20.80;99.90;;;;;;5073053;28;20575;-48
2023/09/18 08:51:55;;;;;;;6.88;3.72;;;20.80;99.90;;;;;;5072705;28;20485;-44
2023/09/18 08:54:23;;;;;;;4.63;3.05;;;20.90;99.90;;;;;;5072752;28;20032;-44
2023/09/18 08:56:50;;;;;;;7.72;3.42;;;20.90;99.90;;;;;;5073588;28;20024;-47
2023/09/18 08:59:16;;;;;;;7.82;3.47;;;21.00;99.90;;;;;;5067135;28;20032;-46
2023/09/18 09:01:42;;;;;;;5.30;2.90;;;21.10;99.90;;;;;;5068428;28;20501;-49
2023/09/18 09:04:08;;;;;;;3.40;2.65;;;21.10;99.90;;;;;;5065693;28;20027;-46
2023/09/18 09:06:33;;;;;;;3.17;2.65;;;21.20;99.90;;;;;;5076587;28;20039;-48
2023/09/18 09:08:59;;;;;;;6.78;2.80;;;21.20;99.90;;;;;;5067020;28;20116;-45
2023/09/18 09:11:25;;;;;;;5.78;3.13;;;21.20;99.90;;;;;;5056761;28;20501;-50
2023/09/18 09:14:21;;;;;;;4.53;2.60;;;21.20;99.90;;;;;;5073544;28;20033;-32
2023/09/18 09:16:51;;;;;;;3.53;3.00;;;21.20;99.90;;;;;;5060500;28;20123;-32
2023/09/18 09:19:18;;;;;;;5.10;3.28;;;21.10;99.90;;;;;;5068111;28;20108;-33
2023/09/18 09:21:44;;;;;;;5.75;3.13;;;21.10;99.90;;;;;;5069980;28;20358;-31
2023/09/18 09:24:14;;;;;;;4.57;3.00;;;21.10;99.90;;;;;;5072011;28;20028;-33
2023/09/18 09:26:42;;;;;;;4.28;3.08;;;21.10;99.90;;;;;;5072749;28;20032;-33
2023/09/18 09:29:20;;;;;;;5.75;3.50;;;21.00;99.90;;;;;;5075420;28;20028;-33
2023/09/18 09:31:47;;;;;;;9.93;3.85;;;21.00;99.90;;;;;;5072038;28;20493;-42
2023/09/18 09:34:23;;;;;;;15.70;4.63;;;20.90;99.90;;;;;;5071522;28;20032;-44
2023/09/18 09:36:56;;;;;;;9.00;3.17;;;20.80;99.90;;;;;;5069478;28;20115;-44
2023/09/18 09:39:24;;;;;;;6.25;3.30;;;20.80;99.90;;;;;;5063703;28;20024;-45
2023/09/18 09:41:53;;;;;;;7.60;3.17;;;20.80;99.90;;;;;;5072563;28;20020;-43
2023/09/18 09:44:20;;;;;;;6.57;3.50;;;20.80;99.90;;;;;;5072941;28;20415;-43
2023/09/18 09:46:51;;;;;;;7.28;3.25;;;20.70;99.90;;;;;;5068885;28;20070;-43
2023/09/18 09:49:19;;;;;;;4.43;3.42;;;20.60;99.90;;;;;;5073557;28;20043;-42
2023/09/18 09:51:45;;;;;;;3.88;3.50;;;20.60;99.90;;;;;;5071272;28;20536;-42
2023/09/18 09:54:12;;;;;;;7.25;3.78;;;20.60;99.90;;;;;;5072258;28;20427;-43
2023/09/18 09:56:50;;;;;;;9.10;3.88;;;20.60;99.90;;;;;;5069249;28;20020;-45
2023/09/18 09:59:18;;;;;;;4.13;3.25;;;20.60;99.90;;;;;;5069472;28;20051;-44
2023/09/18 10:01:50;;;;;;;4.95;3.38;;;20.60;99.90;;;;;;5069136;28;20377;-42
2023/09/18 10:04:17;;;;;;;6.38;3.58;;;20.70;99.90;;;;;;5069945;28;20025;-43
2023/09/18 10:06:44;;;;;;;4.68;3.72;;;20.80;99.90;;;;;;5073014;28;20032;-42
2023/09/18 10:09:11;;;;;;;;;;;20.70;99.90;;;;;;5068624;28;20025;-42
2023/09/18 10:11:51;;;;;;;8.07;3.80;;;20.80;99.90;;;;;;5072773;28;19949;-43
2023/09/18 10:14:26;;;;;;;3.78;3.47;;;20.80;99.90;;;;;;5075457;28;20028;-42
2023/09/18 10:16:55;;;;;;;4.05;3.42;;;20.90;99.90;;;;;;5055417;28;20037;-43
2023/09/18 10:19:43;;;;;;;9.65;3.75;;;21.00;99.90;;;;;;5066868;28;20050;-44
2023/09/18 10:22:32;;;;;;;3.75;3.22;;;21.10;99.90;;;;;;5068764;28;20024;-43
2023/09/18 10:25:09;;;;;;;2.90;2.70;;;21.10;99.90;;;;;;5064848;28;20104;-43
2023/09/18 10:27:40;;;;;;;4.75;2.75;;;21.00;99.90;;;;;;5072681;28;20021;-43
2023/09/18 10:30:10;;;;;;;5.95;3.70;;;21.00;99.90;;;;;;5074370;28;20024;-42
2023/09/18 10:32:40;;;;;;;4.40;3.20;;;20.90;99.90;;;;;;5074846;28;20389;-43
2023/09/18 10:35:08;;;;;;;4.80;3.55;;;20.90;99.90;;;;;;5074750;28;20048;-48
2023/09/18 10:37:36;;;;;;;5.75;2.83;;;20.90;99.90;;;;;;5074689;28;20115;-46
2023/09/18 10:40:04;;;;;;;4.40;2.70;;;21.00;99.90;;;;;;5072243;28;20028;-45
2023/09/18 10:42:30;;;;;;;5.57;3.15;;;21.10;99.90;;;;;;5073221;28;20056;-45
2023/09/18 10:44:57;;;;;;;5.32;3.30;;;21.10;99.90;;;;;;5073547;28;20060;-45
2023/09/18 10:47:23;;;;;;;5.50;2.63;;;21.30;99.90;;;;;;5070111;28;20036;-45
2023/09/18 10:49:50;;;;;;;4.97;2.70;;;21.50;99.90;;;;;;5076646;28;20036;-46
2023/09/18 10:52:16;;;;;;;4.33;2.90;;;21.80;99.90;;;;;;5067691;28;20028;-42
2023/09/18 10:54:41;;;;;;;6.07;3.10;;;21.90;99.90;;;;;;5072706;28;20534;-51
2023/09/18 10:57:07;;;;;;;6.65;3.13;;;22.00;99.90;;;;;;5064383;28;20081;-43
2023/09/18 10:59:33;;;;;;;4.45;3.25;;;22.10;99.90;;;;;;5070589;28;20615;-46
2023/09/18 11:02:07;;;;;;;6.03;3.35;;;22.30;99.90;;;;;;5069608;28;20074;-46
2023/09/18 11:04:33;;;;;;;4.72;3.08;;;22.20;99.90;;;;;;5071933;28;20036;-35
2023/09/18 11:06:59;;;;;;;3.80;3.47;;;22.10;99.90;;;;;;5069820;28;20035;-34
2023/09/18 11:09:27;;;;;;;4.32;3.08;;;22.00;99.90;;;;;;5067644;28;20032;-33
2023/09/18 11:11:58;;;;;;;8.75;4.00;;;21.90;99.90;;;;;;5071463;28;20028;-34
2023/09/18 11:14:56;;;;;;;5.95;3.63;;;21.70;99.90;;;;;;5074282;28;20427;-34
2023/09/18 11:17:38;;;;;;;7.10;3.35;;;21.60;99.90;;;;;;5068472;28;20068;-34
2023/09/18 11:20:13;;;;;;;3.70;3.40;;;21.70;99.90;;;;;;5066834;28;20374;-34
2023/09/18 11:22:40;;;;;;;6.10;3.20;;;21.80;99.90;;;;;;5067727;28;20070;-37
2023/09/18 11:25:31;;;;;;;7.05;2.70;;;21.80;99.90;;;;;;5065367;28;20021;-34
2023/09/18 11:27:57;;;;;;;5.65;2.95;;;21.90;99.90;;;;;;5068950;28;20484;-34
2023/09/18 11:30:23;;;;;;;4.00;3.25;;;22.00;99.90;;;;;;5071768;28;20052;-34
2023/09/18 11:32:49;;;;;;;6.10;3.15;;;22.00;99.90;;;;;;5066754;28;20043;-33
2023/09/18 11:35:18;;;;;;;3.03;2.83;;;21.90;99.90;;;;;;5065667;28;20021;-35
2023/09/18 11:37:44;;;;;;;4.75;3.45;;;22.10;99.90;;;;;;5072075;28;20066;-34
2023/09/18 11:40:37;;;;;;;3.27;2.23;;;22.30;99.90;;;;;;5073812;28;20017;-35
2023/09/18 11:43:23;;;;;;;3.83;2.75;;;22.20;99.90;;;;;;5070857;28;20020;-36
2023/09/18 11:45:51;;;;;;;5.10;3.08;;;22.10;99.90;;;;;;5069369;28;20477;-35
2023/09/18 11:48:18;;;;;;;5.05;3.00;;;22.10;99.90;;;;;;5073709;28;20377;-35
2023/09/18 11:50:44;;;;;;;3.17;2.83;;;22.40;99.90;;;;;;5073429;28;20474;-34
2023/09/18 11:53:12;;;;;;;4.40;2.80;;;22.50;99.90;;;;;;5072773;28;20097;-35
2023/09/18 11:55:39;;;;;;;2.78;2.50;;;22.40;99.90;;;;;;5073090;28;20021;-34
2023/09/18 11:58:06;;;;;;;7.10;2.53;;;22.40;99.90;;;;;;5072892;28;20025;-35
2023/09/18 12:00:32;;;;;;;3.05;2.42;;;22.50;99.90;;;;;;5072976;28;20366;-35
2023/09/18 12:03:00;;;;;;;2.53;2.33;;;22.60;99.90;;;;;;5073223;28;20023;-33
2023/09/18 12:05:26;;;;;;;2.33;2.15;;;22.70;99.90;;;;;;5073191;28;20512;-48
2023/09/18 12:07:53;;;;;;;20.75;2.65;;;22.80;99.90;;;;;;5073186;28;20020;-50
2023/09/18 12:10:22;;;;;;;4.40;2.40;;;22.80;99.90;;;;;;5073182;28;20024;-46
2023/09/18 12:12:48;;;;;;;5.20;3.28;;;22.70;99.90;;;;;;5073182;28;20044;-51
2023/09/18 12:15:21;;;;;;;2.88;2.55;;;22.60;99.90;;;;;;5073042;28;20393;-52
2023/09/18 12:17:47;;;;;;;5.50;3.00;;;22.70;99.90;;;;;;5072928;28;20029;-52
2023/09/18 12:20:19;;;;;;;4.60;2.97;;;22.80;99.90;;;;;;5073226;28;20030;-49
2023/09/18 12:22:48;;;;;;;3.78;2.90;;;22.70;99.90;;;;;;5073217;28;20027;-49
2023/09/18 12:25:15;;;;;;;6.22;2.47;;;22.70;99.90;;;;;;5072861;28;20044;-46
2023/09/18 12:27:41;;;;;;;7.97;3.10;;;22.70;99.90;;;;;;5073198;28;20401;-51
2023/09/18 12:30:08;;;;;;;5.55;2.75;;;22.70;99.90;;;;;;5072944;28;20081;-51
2023/09/18 12:32:56;;;;;;;2.47;2.05;;;22.80;99.90;;;;;;5072409;28;20020;-52
2023/09/18 12:35:25;;;;;;;2.45;1.90;;;22.80;99.90;;;;;;5072880;28;20080;-50
2023/09/18 12:37:50;;;;;;;4.47;2.17;;;22.80;99.90;;;;;;5071551;28;20027;-49
2023/09/18 12:40:30;;;;;;;13.35;2.97;;;22.80;99.90;;;;;;5072671;28;20029;-49
2023/09/18 12:42:56;;;;;;;7.18;2.20;;;22.80;99.90;;;;;;5072779;28;20032;-49
2023/09/18 12:45:26;;;;;;;5.10;3.07;;;22.80;99.90;;;;;;5072836;28;20051;-48
2023/09/18 12:47:55;;;;;;;9.10;1.98;;;22.70;99.90;;;;;;5072794;28;20031;-49
2023/09/18 12:50:21;;;;;;;6.60;2.47;;;22.70;99.90;;;;;;5072621;28;20174;-50
2023/09/18 12:52:47;;;;;;;2.67;2.25;;;22.80;99.90;;;;;;5072664;28;20090;-49
2023/09/18 12:55:25;;;;;;;2.55;2.35;;;23.00;99.90;;;;;;5072615;28;20024;-50
2023/09/18 12:57:52;;;;;;;2.28;2.08;;;23.30;99.90;;;;;;5072647;28;20024;-49
2023/09/18 13:00:26;;;;;;;2.40;2.20;;;23.40;99.90;;;;;;5072833;28;20021;-49
2023/09/18 13:02:55;;;;;;;7.63;2.50;;;23.50;99.90;;;;;;5072469;28;20032;-50
2023/09/18 13:05:25;;;;;;;4.05;2.88;;;23.70;99.90;;;;;;5072692;28;20287;-50
2023/09/18 13:07:52;;;;;;;11.50;3.47;;;23.80;99.90;;;;;;5072822;28;20079;-51
2023/09/18 13:10:18;;;;;;;3.63;3.05;;;23.70;99.90;;;;;;5072775;28;20431;-50
2023/09/18 13:12:53;;;;;;;10.50;3.60;;;23.50;99.90;;;;;;5072427;28;20507;-46
2023/09/18 13:15:32;;;;;;;5.18;3.70;;;23.40;99.90;;;;;;5072694;28;20443;-35
2023/09/18 13:18:09;;;;;;;3.72;2.97;;;23.20;99.90;;;;;;5072455;28;20043;-35
2023/09/18 13:20:35;;;;;;;4.07;3.05;;;23.10;99.90;;;;;;5072718;28;20032;-35
2023/09/18 13:23:03;;;;;;;4.28;3.10;;;23.10;99.90;;;;;;5072593;28;20530;-35
2023/09/18 13:25:30;;;;;;;3.08;2.78;;;23.30;99.90;;;;;;5072238;28;20020;-37